sensor_id;sensor_type;location;lat;lon;timestamp;P1;durP1;ratioP1;P2;durP2;ratioP2
30046;SDS011;16878;52.542;13.426;2023-03-01T00:00:38;64.28;;;32.08;;
30046;SDS011;16878;52.542;13.426;2023-03-01T00:03:04;59.95;;;32.63;;
30046;SDS011;16878;52.542;13.426;2023-03-01T00:05:29;69.82;;;34.72;;
30046;SDS011;16878;52.542;13.426;2023-03-01T00:07:55;78.72;;;37.40;;
30046;SDS011;16878;52.542;13.426;2023-03-01T00:10:21;78.28;;;39.88;;
30046;SDS011;16878;52.542;13.426;2023-03-01T00:12:46;75.40;;;39.53;;
30046;SDS011;16878;52.542;13.426;2023-03-01T00:15:12;82.00;;;40.50;;
30046;SDS011;16878;52.542;13.426;2023-03-01T00:17:38;72.13;;;38.25;;
30046;SDS011;16878;52.542;13.426;2023-03-01T00:20:04;72.82;;;37.58;;
30046;SDS011;16878;52.542;13.426;2023-03-01T00:22:35;74.45;;;37.83;;
30046;SDS011;16878;52.542;13.426;2023-03-01T00:25:01;66.80;;;36.42;;
30046;SDS011;16878;52.542;13.426;2023-03-01T00:27:27;68.07;;;36.15;;
30046;SDS011;16878;52.542;13.426;2023-03-01T00:29:52;70.30;;;37.65;;
30046;SDS011;16878;52.542;13.426;2023-03-01T00:32:18;62.92;;;34.63;;
30046;SDS011;16878;52.542;13.426;2023-03-01T00:34:44;76.82;;;37.45;;
30046;SDS011;16878;52.542;13.426;2023-03-01T00:37:19;74.15;;;37.58;;
30046;SDS011;16878;52.542;13.426;2023-03-01T00:39:45;76.10;;;38.70;;
30046;SDS011;16878;52.542;13.426;2023-03-01T00:42:11;72.95;;;39.72;;
30046;SDS011;16878;52.542;13.426;2023-03-01T00:44:37;84.18;;;39.95;;
30046;SDS011;16878;52.542;13.426;2023-03-01T00:47:03;85.88;;;41.97;;
30046;SDS011;16878;52.542;13.426;2023-03-01T00:49:28;76.68;;;39.55;;
30046;SDS011;16878;52.542;13.426;2023-03-01T00:51:54;82.13;;;40.92;;
30046;SDS011;16878;52.542;13.426;2023-03-01T00:54:20;75.95;;;38.80;;
30046;SDS011;16878;52.542;13.426;2023-03-01T00:56:49;72.55;;;39.33;;
30046;SDS011;16878;52.542;13.426;2023-03-01T00:59:14;77.50;;;38.03;;
30046;SDS011;16878;52.542;13.426;2023-03-01T01:01:40;68.35;;;35.67;;
30046;SDS011;16878;52.542;13.426;2023-03-01T01:04:07;66.90;;;33.92;;
30046;SDS011;16878;52.542;13.426;2023-03-01T01:06:37;67.65;;;35.88;;
30046;SDS011;16878;52.542;13.426;2023-03-01T01:09:05;71.88;;;35.85;;
30046;SDS011;16878;52.542;13.426;2023-03-01T01:11:32;63.00;;;34.35;;
30046;SDS011;16878;52.542;13.426;2023-03-01T01:13:59;68.07;;;35.65;;
30046;SDS011;16878;52.542;13.426;2023-03-01T01:16:26;64.88;;;35.92;;
30046;SDS011;16878;52.542;13.426;2023-03-01T01:18:52;64.50;;;34.85;;
30046;SDS011;16878;52.542;13.426;2023-03-01T01:21:19;68.68;;;36.13;;
30046;SDS011;16878;52.542;13.426;2023-03-01T01:23:47;73.25;;;33.30;;
30046;SDS011;16878;52.542;13.426;2023-03-01T01:26:15;72.53;;;38.75;;
30046;SDS011;16878;52.542;13.426;2023-03-01T01:28:45;64.20;;;36.13;;
30046;SDS011;16878;52.542;13.426;2023-03-01T01:31:12;71.22;;;35.88;;
30046;SDS011;16878;52.542;13.426;2023-03-01T01:33:38;66.03;;;35.33;;
30046;SDS011;16878;52.542;13.426;2023-03-01T01:36:05;70.53;;;36.70;;
30046;SDS011;16878;52.542;13.426;2023-03-01T01:38:31;70.40;;;37.20;;
30046;SDS011;16878;52.542;13.426;2023-03-01T01:40:58;62.63;;;35.58;;
30046;SDS011;16878;52.542;13.426;2023-03-01T01:43:32;67.15;;;35.28;;
30046;SDS011;16878;52.542;13.426;2023-03-01T01:46:03;63.38;;;33.35;;
30046;SDS011;16878;52.542;13.426;2023-03-01T01:48:34;69.63;;;35.50;;
30046;SDS011;16878;52.542;13.426;2023-03-01T01:51:10;67.38;;;34.20;;
30046;SDS011;16878;52.542;13.426;2023-03-01T01:53:38;67.22;;;34.97;;
30046;SDS011;16878;52.542;13.426;2023-03-01T01:56:06;65.97;;;35.25;;
30046;SDS011;16878;52.542;13.426;2023-03-01T01:58:34;62.13;;;34.00;;
30046;SDS011;16878;52.542;13.426;2023-03-01T02:01:00;69.78;;;36.38;;
30046;SDS011;16878;52.542;13.426;2023-03-01T02:03:29;73.90;;;35.22;;
30046;SDS011;16878;52.542;13.426;2023-03-01T02:08:31;69.80;;;36.30;;
30046;SDS011;16878;52.542;13.426;2023-03-01T02:11:00;66.60;;;35.80;;
30046;SDS011;16878;52.542;13.426;2023-03-01T02:13:29;76.13;;;37.00;;
30046;SDS011;16878;52.542;13.426;2023-03-01T02:15:56;66.07;;;34.72;;
30046;SDS011;16878;52.542;13.426;2023-03-01T02:18:22;73.90;;;36.75;;
30046;SDS011;16878;52.542;13.426;2023-03-01T02:21:02;71.82;;;37.17;;
30046;SDS011;16878;52.542;13.426;2023-03-01T02:23:35;63.63;;;35.00;;
30046;SDS011;16878;52.542;13.426;2023-03-01T02:26:04;66.60;;;34.20;;
30046;SDS011;16878;52.542;13.426;2023-03-01T02:28:50;67.65;;;33.80;;
30046;SDS011;16878;52.542;13.426;2023-03-01T02:31:17;71.03;;;34.47;;
30046;SDS011;16878;52.542;13.426;2023-03-01T02:34:03;59.80;;;32.38;;
30046;SDS011;16878;52.542;13.426;2023-03-01T02:36:41;52.17;;;27.90;;
30046;SDS011;16878;52.542;13.426;2023-03-01T02:39:15;55.90;;;30.77;;
30046;SDS011;16878;52.542;13.426;2023-03-01T02:41:52;48.92;;;25.30;;
30046;SDS011;16878;52.542;13.426;2023-03-01T02:44:19;54.97;;;28.88;;
30046;SDS011;16878;52.542;13.426;2023-03-01T02:46:47;53.63;;;28.52;;
30046;SDS011;16878;52.542;13.426;2023-03-01T02:49:18;50.63;;;29.00;;
30046;SDS011;16878;52.542;13.426;2023-03-01T02:52:00;54.88;;;29.38;;
30046;SDS011;16878;52.542;13.426;2023-03-01T02:57:42;55.08;;;29.60;;
30046;SDS011;16878;52.542;13.426;2023-03-01T03:00:09;57.28;;;31.42;;
30046;SDS011;16878;52.542;13.426;2023-03-01T03:02:59;55.20;;;28.58;;
30046;SDS011;16878;52.542;13.426;2023-03-01T03:05:26;55.58;;;29.65;;
30046;SDS011;16878;52.542;13.426;2023-03-01T03:07:53;65.80;;;29.70;;
30046;SDS011;16878;52.542;13.426;2023-03-01T03:12:51;55.97;;;29.63;;
30046;SDS011;16878;52.542;13.426;2023-03-01T03:15:21;62.42;;;30.88;;
30046;SDS011;16878;52.542;13.426;2023-03-01T03:17:48;58.55;;;28.90;;
30046;SDS011;16878;52.542;13.426;2023-03-01T03:20:15;54.08;;;28.70;;
30046;SDS011;16878;52.542;13.426;2023-03-01T03:22:49;55.60;;;30.23;;
30046;SDS011;16878;52.542;13.426;2023-03-01T03:25:17;56.38;;;30.30;;
30046;SDS011;16878;52.542;13.426;2023-03-01T03:27:44;55.97;;;29.05;;
30046;SDS011;16878;52.542;13.426;2023-03-01T03:30:12;61.10;;;29.00;;
30046;SDS011;16878;52.542;13.426;2023-03-01T03:32:42;59.50;;;29.02;;
30046;SDS011;16878;52.542;13.426;2023-03-01T03:35:18;54.95;;;30.13;;
30046;SDS011;16878;52.542;13.426;2023-03-01T03:37:58;54.58;;;27.67;;
30046;SDS011;16878;52.542;13.426;2023-03-01T03:40:26;55.08;;;28.73;;
30046;SDS011;16878;52.542;13.426;2023-03-01T03:42:56;53.35;;;27.92;;
30046;SDS011;16878;52.542;13.426;2023-03-01T03:45:22;54.65;;;29.25;;
30046;SDS011;16878;52.542;13.426;2023-03-01T03:47:47;57.55;;;29.67;;
30046;SDS011;16878;52.542;13.426;2023-03-01T03:50:14;53.65;;;28.45;;
30046;SDS011;16878;52.542;13.426;2023-03-01T03:52:41;58.45;;;30.33;;
30046;SDS011;16878;52.542;13.426;2023-03-01T03:55:07;53.58;;;28.70;;
30046;SDS011;16878;52.542;13.426;2023-03-01T03:57:35;53.78;;;28.23;;
30046;SDS011;16878;52.542;13.426;2023-03-01T04:00:01;55.22;;;28.77;;
30046;SDS011;16878;52.542;13.426;2023-03-01T04:02:30;49.75;;;28.35;;
30046;SDS011;16878;52.542;13.426;2023-03-01T04:04:55;54.97;;;29.17;;
30046;SDS011;16878;52.542;13.426;2023-03-01T04:07:21;62.03;;;31.20;;
30046;SDS011;16878;52.542;13.426;2023-03-01T04:09:47;52.53;;;28.83;;
30046;SDS011;16878;52.542;13.426;2023-03-01T04:12:12;51.00;;;27.73;;
30046;SDS011;16878;52.542;13.426;2023-03-01T04:14:38;57.50;;;29.13;;
30046;SDS011;16878;52.542;13.426;2023-03-01T04:17:04;58.35;;;29.55;;
30046;SDS011;16878;52.542;13.426;2023-03-01T04:19:30;57.78;;;30.17;;
30046;SDS011;16878;52.542;13.426;2023-03-01T04:22:04;57.55;;;28.77;;
30046;SDS011;16878;52.542;13.426;2023-03-01T04:24:37;64.50;;;31.63;;
30046;SDS011;16878;52.542;13.426;2023-03-01T04:27:03;54.55;;;30.60;;
30046;SDS011;16878;52.542;13.426;2023-03-01T04:29:28;68.13;;;29.67;;
30046;SDS011;16878;52.542;13.426;2023-03-01T04:31:54;54.20;;;29.80;;
30046;SDS011;16878;52.542;13.426;2023-03-01T04:34:20;53.50;;;29.52;;
30046;SDS011;16878;52.542;13.426;2023-03-01T04:36:46;57.25;;;30.08;;
30046;SDS011;16878;52.542;13.426;2023-03-01T04:39:11;60.25;;;29.55;;
30046;SDS011;16878;52.542;13.426;2023-03-01T04:41:38;60.03;;;32.65;;
30046;SDS011;16878;52.542;13.426;2023-03-01T04:44:05;66.20;;;33.15;;
30046;SDS011;16878;52.542;13.426;2023-03-01T04:46:31;59.85;;;32.83;;
30046;SDS011;16878;52.542;13.426;2023-03-01T04:48:57;60.03;;;34.05;;
30046;SDS011;16878;52.542;13.426;2023-03-01T04:51:22;66.93;;;33.42;;
30046;SDS011;16878;52.542;13.426;2023-03-01T04:53:48;64.18;;;34.25;;
30046;SDS011;16878;52.542;13.426;2023-03-01T04:56:14;68.05;;;35.10;;
30046;SDS011;16878;52.542;13.426;2023-03-01T04:58:42;61.97;;;32.78;;
30046;SDS011;16878;52.542;13.426;2023-03-01T05:01:13;60.92;;;34.10;;
30046;SDS011;16878;52.542;13.426;2023-03-01T05:03:44;67.15;;;33.88;;
30046;SDS011;16878;52.542;13.426;2023-03-01T05:06:15;62.42;;;32.35;;
30046;SDS011;16878;52.542;13.426;2023-03-01T05:08:42;69.72;;;35.13;;
30046;SDS011;16878;52.542;13.426;2023-03-01T05:11:09;65.65;;;32.75;;
30046;SDS011;16878;52.542;13.426;2023-03-01T05:13:35;68.95;;;32.75;;
30046;SDS011;16878;52.542;13.426;2023-03-01T05:16:03;60.97;;;31.83;;
30046;SDS011;16878;52.542;13.426;2023-03-01T05:18:30;67.95;;;33.63;;
30046;SDS011;16878;52.542;13.426;2023-03-01T05:21:10;67.18;;;33.80;;
30046;SDS011;16878;52.542;13.426;2023-03-01T05:23:44;64.55;;;33.22;;
30046;SDS011;16878;52.542;13.426;2023-03-01T05:26:11;61.30;;;33.85;;
30046;SDS011;16878;52.542;13.426;2023-03-01T05:28:37;61.90;;;33.35;;
30046;SDS011;16878;52.542;13.426;2023-03-01T05:31:03;63.15;;;33.05;;
30046;SDS011;16878;52.542;13.426;2023-03-01T05:33:35;71.45;;;35.30;;
30046;SDS011;16878;52.542;13.426;2023-03-01T05:36:02;69.10;;;36.10;;
30046;SDS011;16878;52.542;13.426;2023-03-01T05:38:28;62.80;;;34.45;;
30046;SDS011;16878;52.542;13.426;2023-03-01T05:40:53;65.82;;;34.33;;
30046;SDS011;16878;52.542;13.426;2023-03-01T05:43:19;64.65;;;32.85;;
30046;SDS011;16878;52.542;13.426;2023-03-01T05:45:45;63.53;;;34.47;;
30046;SDS011;16878;52.542;13.426;2023-03-01T05:48:11;67.57;;;33.55;;
30046;SDS011;16878;52.542;13.426;2023-03-01T05:50:41;70.50;;;35.65;;
30046;SDS011;16878;52.542;13.426;2023-03-01T05:53:26;65.38;;;34.25;;
30046;SDS011;16878;52.542;13.426;2023-03-01T05:55:52;65.75;;;35.17;;
30046;SDS011;16878;52.542;13.426;2023-03-01T05:58:19;71.95;;;36.22;;
30046;SDS011;16878;52.542;13.426;2023-03-01T06:00:46;73.22;;;35.65;;
30046;SDS011;16878;52.542;13.426;2023-03-01T06:03:13;70.20;;;36.25;;
30046;SDS011;16878;52.542;13.426;2023-03-01T06:05:41;67.70;;;35.15;;
30046;SDS011;16878;52.542;13.426;2023-03-01T06:08:08;65.43;;;35.85;;
30046;SDS011;16878;52.542;13.426;2023-03-01T06:10:35;74.35;;;36.50;;
30046;SDS011;16878;52.542;13.426;2023-03-01T06:13:00;63.30;;;35.28;;
30046;SDS011;16878;52.542;13.426;2023-03-01T06:15:26;66.97;;;34.95;;
30046;SDS011;16878;52.542;13.426;2023-03-01T06:17:53;71.10;;;37.72;;
30046;SDS011;16878;52.542;13.426;2023-03-01T06:22:48;71.15;;;35.47;;
30046;SDS011;16878;52.542;13.426;2023-03-01T06:25:15;75.57;;;36.97;;
30046;SDS011;16878;52.542;13.426;2023-03-01T06:27:43;67.97;;;36.13;;
30046;SDS011;16878;52.542;13.426;2023-03-01T06:30:10;63.45;;;34.47;;
30046;SDS011;16878;52.542;13.426;2023-03-01T06:32:38;79.18;;;37.22;;
30046;SDS011;16878;52.542;13.426;2023-03-01T06:35:08;72.97;;;37.35;;
30046;SDS011;16878;52.542;13.426;2023-03-01T06:37:35;72.18;;;34.47;;
30046;SDS011;16878;52.542;13.426;2023-03-01T06:40:02;68.75;;;36.30;;
30046;SDS011;16878;52.542;13.426;2023-03-01T06:42:36;79.93;;;36.92;;
30046;SDS011;16878;52.542;13.426;2023-03-01T06:45:04;67.93;;;36.00;;
30046;SDS011;16878;52.542;13.426;2023-03-01T06:47:31;72.10;;;37.65;;
30046;SDS011;16878;52.542;13.426;2023-03-01T06:49:58;73.60;;;35.70;;
30046;SDS011;16878;52.542;13.426;2023-03-01T06:52:27;70.13;;;35.45;;
30046;SDS011;16878;52.542;13.426;2023-03-01T06:54:53;79.50;;;37.75;;
30046;SDS011;16878;52.542;13.426;2023-03-01T06:57:19;68.15;;;36.20;;
30046;SDS011;16878;52.542;13.426;2023-03-01T06:59:46;69.03;;;34.53;;
30046;SDS011;16878;52.542;13.426;2023-03-01T07:02:12;73.32;;;37.65;;
30046;SDS011;16878;52.542;13.426;2023-03-01T07:04:39;77.95;;;39.00;;
30046;SDS011;16878;52.542;13.426;2023-03-01T07:07:05;68.95;;;36.42;;
30046;SDS011;16878;52.542;13.426;2023-03-01T07:09:31;74.82;;;38.20;;
30046;SDS011;16878;52.542;13.426;2023-03-01T07:11:57;80.22;;;39.05;;
30046;SDS011;16878;52.542;13.426;2023-03-01T07:14:25;71.85;;;37.30;;
30046;SDS011;16878;52.542;13.426;2023-03-01T07:16:51;76.15;;;37.15;;
30046;SDS011;16878;52.542;13.426;2023-03-01T07:19:26;68.60;;;38.83;;
30046;SDS011;16878;52.542;13.426;2023-03-01T07:21:52;74.60;;;39.97;;
30046;SDS011;16878;52.542;13.426;2023-03-01T07:24:21;78.60;;;39.28;;
30046;SDS011;16878;52.542;13.426;2023-03-01T07:26:53;78.88;;;38.30;;
30046;SDS011;16878;52.542;13.426;2023-03-01T07:29:19;94.38;;;39.80;;
30046;SDS011;16878;52.542;13.426;2023-03-01T07:31:45;94.63;;;39.20;;
30046;SDS011;16878;52.542;13.426;2023-03-01T07:34:11;92.47;;;40.70;;
30046;SDS011;16878;52.542;13.426;2023-03-01T07:36:41;84.50;;;38.45;;
30046;SDS011;16878;52.542;13.426;2023-03-01T07:39:09;79.30;;;37.60;;
30046;SDS011;16878;52.542;13.426;2023-03-01T07:41:35;80.53;;;38.88;;
30046;SDS011;16878;52.542;13.426;2023-03-01T07:44:01;76.53;;;39.25;;
30046;SDS011;16878;52.542;13.426;2023-03-01T07:46:27;77.32;;;40.30;;
30046;SDS011;16878;52.542;13.426;2023-03-01T07:48:52;80.30;;;37.42;;
30046;SDS011;16878;52.542;13.426;2023-03-01T07:51:18;70.55;;;37.00;;
30046;SDS011;16878;52.542;13.426;2023-03-01T07:53:47;74.60;;;38.90;;
30046;SDS011;16878;52.542;13.426;2023-03-01T07:56:13;77.72;;;39.25;;
30046;SDS011;16878;52.542;13.426;2023-03-01T07:58:42;73.00;;;36.88;;
30046;SDS011;16878;52.542;13.426;2023-03-01T08:01:11;90.93;;;39.92;;
30046;SDS011;16878;52.542;13.426;2023-03-01T08:03:39;63.42;;;32.83;;
30046;SDS011;16878;52.542;13.426;2023-03-01T08:06:06;64.78;;;31.48;;
30046;SDS011;16878;52.542;13.426;2023-03-01T08:08:33;54.30;;;28.40;;
30046;SDS011;16878;52.542;13.426;2023-03-01T08:11:01;40.95;;;22.40;;
30046;SDS011;16878;52.542;13.426;2023-03-01T08:13:27;41.85;;;20.42;;
30046;SDS011;16878;52.542;13.426;2023-03-01T08:15:53;30.05;;;17.23;;
30046;SDS011;16878;52.542;13.426;2023-03-01T08:18:19;25.58;;;13.73;;
30046;SDS011;16878;52.542;13.426;2023-03-01T08:20:46;27.48;;;15.93;;
30046;SDS011;16878;52.542;13.426;2023-03-01T08:23:12;26.52;;;15.38;;
30046;SDS011;16878;52.542;13.426;2023-03-01T08:25:38;25.85;;;13.48;;
30046;SDS011;16878;52.542;13.426;2023-03-01T08:28:04;22.17;;;12.68;;
30046;SDS011;16878;52.542;13.426;2023-03-01T08:30:30;21.23;;;11.68;;
30046;SDS011;16878;52.542;13.426;2023-03-01T08:32:57;20.17;;;11.65;;
30046;SDS011;16878;52.542;13.426;2023-03-01T08:35:22;27.80;;;11.57;;
30046;SDS011;16878;52.542;13.426;2023-03-01T08:37:48;18.45;;;10.32;;
30046;SDS011;16878;52.542;13.426;2023-03-01T08:40:14;18.90;;;10.30;;
30046;SDS011;16878;52.542;13.426;2023-03-01T08:42:41;18.77;;;10.95;;
30046;SDS011;16878;52.542;13.426;2023-03-01T08:45:09;26.48;;;11.93;;
30046;SDS011;16878;52.542;13.426;2023-03-01T08:47:36;15.00;;;8.63;;
30046;SDS011;16878;52.542;13.426;2023-03-01T08:50:02;16.60;;;9.30;;
30046;SDS011;16878;52.542;13.426;2023-03-01T08:52:28;16.30;;;10.02;;
30046;SDS011;16878;52.542;13.426;2023-03-01T08:54:55;17.48;;;9.45;;
30046;SDS011;16878;52.542;13.426;2023-03-01T08:57:21;18.42;;;8.25;;
30046;SDS011;16878;52.542;13.426;2023-03-01T08:59:47;16.35;;;8.75;;
30046;SDS011;16878;52.542;13.426;2023-03-01T09:02:13;18.55;;;10.73;;
30046;SDS011;16878;52.542;13.426;2023-03-01T09:04:41;28.30;;;12.48;;
30046;SDS011;16878;52.542;13.426;2023-03-01T09:07:07;16.90;;;10.07;;
30046;SDS011;16878;52.542;13.426;2023-03-01T09:09:33;18.77;;;9.32;;
30046;SDS011;16878;52.542;13.426;2023-03-01T09:11:59;16.90;;;9.57;;
30046;SDS011;16878;52.542;13.426;2023-03-01T09:14:26;19.48;;;10.15;;
30046;SDS011;16878;52.542;13.426;2023-03-01T09:16:52;19.15;;;10.80;;
30046;SDS011;16878;52.542;13.426;2023-03-01T09:19:17;40.85;;;16.48;;
30046;SDS011;16878;52.542;13.426;2023-03-01T09:21:43;28.10;;;10.95;;
30046;SDS011;16878;52.542;13.426;2023-03-01T09:24:22;21.05;;;10.70;;
30046;SDS011;16878;52.542;13.426;2023-03-01T09:26:49;16.15;;;9.13;;
30046;SDS011;16878;52.542;13.426;2023-03-01T09:29:17;16.80;;;8.43;;
30046;SDS011;16878;52.542;13.426;2023-03-01T09:31:44;17.35;;;9.85;;
30046;SDS011;16878;52.542;13.426;2023-03-01T09:34:09;22.13;;;9.82;;
30046;SDS011;16878;52.542;13.426;2023-03-01T09:36:36;21.60;;;10.38;;
30046;SDS011;16878;52.542;13.426;2023-03-01T09:39:02;14.57;;;8.10;;
30046;SDS011;16878;52.542;13.426;2023-03-01T09:41:42;19.42;;;10.25;;
30046;SDS011;16878;52.542;13.426;2023-03-01T09:49:44;20.58;;;9.45;;
30046;SDS011;16878;52.542;13.426;2023-03-01T09:52:41;23.40;;;9.73;;
30046;SDS011;16878;52.542;13.426;2023-03-01T09:56:13;17.88;;;9.02;;
30046;SDS011;16878;52.542;13.426;2023-03-01T10:06:38;14.05;;;6.93;;
30046;SDS011;16878;52.542;13.426;2023-03-01T10:09:15;13.52;;;7.63;;
30046;SDS011;16878;52.542;13.426;2023-03-01T10:11:47;11.55;;;6.22;;
30046;SDS011;16878;52.542;13.426;2023-03-01T10:14:34;15.25;;;6.10;;
30046;SDS011;16878;52.542;13.426;2023-03-01T10:17:42;9.57;;;5.53;;
30046;SDS011;16878;52.542;13.426;2023-03-01T10:20:42;10.52;;;5.45;;
30046;SDS011;16878;52.542;13.426;2023-03-01T10:23:18;10.27;;;5.30;;
30046;SDS011;16878;52.542;13.426;2023-03-01T10:26:30;14.75;;;5.30;;
30046;SDS011;16878;52.542;13.426;2023-03-01T10:28:49;10.23;;;5.45;;
30046;SDS011;16878;52.542;13.426;2023-03-01T10:31:22;10.77;;;5.50;;
30046;SDS011;16878;52.542;13.426;2023-03-01T10:33:54;9.20;;;5.53;;
30046;SDS011;16878;52.542;13.426;2023-03-01T10:36:22;10.15;;;5.18;;
30046;SDS011;16878;52.542;13.426;2023-03-01T10:38:51;14.45;;;6.47;;
30046;SDS011;16878;52.542;13.426;2023-03-01T10:41:19;16.70;;;6.10;;
30046;SDS011;16878;52.542;13.426;2023-03-01T10:49:20;16.15;;;5.88;;
30046;SDS011;16878;52.542;13.426;2023-03-01T10:51:49;14.50;;;5.45;;
30046;SDS011;16878;52.542;13.426;2023-03-01T10:54:30;14.93;;;5.55;;
30046;SDS011;16878;52.542;13.426;2023-03-01T10:56:59;12.13;;;5.82;;
30046;SDS011;16878;52.542;13.426;2023-03-01T10:59:30;16.13;;;5.68;;
30046;SDS011;16878;52.542;13.426;2023-03-01T11:02:03;12.50;;;5.25;;
30046;SDS011;16878;52.542;13.426;2023-03-01T11:04:29;16.48;;;5.38;;
30046;SDS011;16878;52.542;13.426;2023-03-01T11:06:58;14.85;;;5.22;;
30046;SDS011;16878;52.542;13.426;2023-03-01T11:09:25;19.35;;;6.43;;
30046;SDS011;16878;52.542;13.426;2023-03-01T11:11:55;13.18;;;5.00;;
30046;SDS011;16878;52.542;13.426;2023-03-01T11:14:25;22.92;;;8.55;;
30046;SDS011;16878;52.542;13.426;2023-03-01T11:16:59;20.63;;;9.50;;
30046;SDS011;16878;52.542;13.426;2023-03-01T11:19:59;13.93;;;5.10;;
30046;SDS011;16878;52.542;13.426;2023-03-01T11:22:37;10.35;;;4.80;;
30046;SDS011;16878;52.542;13.426;2023-03-01T11:25:21;10.98;;;4.78;;
30046;SDS011;16878;52.542;13.426;2023-03-01T11:27:51;10.57;;;4.38;;
30046;SDS011;16878;52.542;13.426;2023-03-01T11:30:26;8.85;;;4.10;;
30046;SDS011;16878;52.542;13.426;2023-03-01T11:35:37;8.07;;;4.72;;
30046;SDS011;16878;52.542;13.426;2023-03-01T11:38:24;10.70;;;4.28;;
30046;SDS011;16878;52.542;13.426;2023-03-01T11:43:30;10.32;;;4.35;;
30046;SDS011;16878;52.542;13.426;2023-03-01T12:17:11;10.68;;;4.90;;
30046;SDS011;16878;52.542;13.426;2023-03-01T12:25:04;13.07;;;4.57;;
30046;SDS011;16878;52.542;13.426;2023-03-01T12:30:24;12.43;;;4.35;;
30046;SDS011;16878;52.542;13.426;2023-03-01T12:32:58;9.65;;;4.53;;
30046;SDS011;16878;52.542;13.426;2023-03-01T12:35:36;12.40;;;5.15;;
30046;SDS011;16878;52.542;13.426;2023-03-01T12:40:57;9.15;;;4.47;;
30046;SDS011;16878;52.542;13.426;2023-03-01T12:43:36;5.77;;;3.73;;
30046;SDS011;16878;52.542;13.426;2023-03-01T12:49:25;11.23;;;4.60;;
30046;SDS011;16878;52.542;13.426;2023-03-01T12:54:35;9.07;;;3.50;;
30046;SDS011;16878;52.542;13.426;2023-03-01T13:05:19;7.78;;;3.90;;
30046;SDS011;16878;52.542;13.426;2023-03-01T13:10:26;6.80;;;3.88;;
30046;SDS011;16878;52.542;13.426;2023-03-01T13:17:47;7.38;;;5.10;;
30046;SDS011;16878;52.542;13.426;2023-03-01T13:20:15;8.02;;;3.67;;
30046;SDS011;16878;52.542;13.426;2023-03-01T13:22:45;11.13;;;3.80;;
30046;SDS011;16878;52.542;13.426;2023-03-01T13:25:16;11.50;;;4.00;;
30046;SDS011;16878;52.542;13.426;2023-03-01T13:27:44;11.52;;;5.50;;
30046;SDS011;16878;52.542;13.426;2023-03-01T13:35:59;10.73;;;3.75;;
30046;SDS011;16878;52.542;13.426;2023-03-01T13:41:16;16.25;;;9.35;;
30046;SDS011;16878;52.542;13.426;2023-03-01T13:44:11;5.57;;;3.70;;
30046;SDS011;16878;52.542;13.426;2023-03-01T13:49:28;7.30;;;4.75;;
30046;SDS011;16878;52.542;13.426;2023-03-01T13:52:13;7.63;;;3.95;;
30046;SDS011;16878;52.542;13.426;2023-03-01T13:54:46;6.78;;;3.40;;
30046;SDS011;16878;52.542;13.426;2023-03-01T13:57:12;8.40;;;3.70;;
30046;SDS011;16878;52.542;13.426;2023-03-01T13:59:55;12.30;;;4.18;;
30046;SDS011;16878;52.542;13.426;2023-03-01T14:02:21;4.45;;;2.88;;
30046;SDS011;16878;52.542;13.426;2023-03-01T14:05:02;6.95;;;3.55;;
30046;SDS011;16878;52.542;13.426;2023-03-01T14:07:28;7.50;;;4.00;;
30046;SDS011;16878;52.542;13.426;2023-03-01T14:09:56;8.73;;;4.20;;
30046;SDS011;16878;52.542;13.426;2023-03-01T14:15:01;7.00;;;4.13;;
30046;SDS011;16878;52.542;13.426;2023-03-01T14:20:52;9.05;;;3.95;;
30046;SDS011;16878;52.542;13.426;2023-03-01T14:23:18;6.30;;;3.70;;
30046;SDS011;16878;52.542;13.426;2023-03-01T14:25:47;8.10;;;3.83;;
30046;SDS011;16878;52.542;13.426;2023-03-01T14:28:33;9.73;;;4.65;;
30046;SDS011;16878;52.542;13.426;2023-03-01T14:31:04;6.38;;;4.70;;
30046;SDS011;16878;52.542;13.426;2023-03-01T14:34:01;10.05;;;3.90;;
30046;SDS011;16878;52.542;13.426;2023-03-01T14:36:29;7.00;;;3.38;;
30046;SDS011;16878;52.542;13.426;2023-03-01T14:41:30;7.47;;;4.00;;
30046;SDS011;16878;52.542;13.426;2023-03-01T14:44:06;8.30;;;4.38;;
30046;SDS011;16878;52.542;13.426;2023-03-01T14:46:41;9.45;;;4.90;;
30046;SDS011;16878;52.542;13.426;2023-03-01T14:51:38;7.15;;;4.45;;
30046;SDS011;16878;52.542;13.426;2023-03-01T14:54:15;7.63;;;3.83;;
30046;SDS011;16878;52.542;13.426;2023-03-01T14:57:00;7.78;;;3.70;;
30046;SDS011;16878;52.542;13.426;2023-03-01T14:59:26;8.38;;;3.83;;
30046;SDS011;16878;52.542;13.426;2023-03-01T15:01:53;10.55;;;4.90;;
30046;SDS011;16878;52.542;13.426;2023-03-01T15:04:22;19.90;;;8.13;;
30046;SDS011;16878;52.542;13.426;2023-03-01T15:06:55;6.95;;;4.28;;
30046;SDS011;16878;52.542;13.426;2023-03-01T15:09:29;9.55;;;4.30;;
30046;SDS011;16878;52.542;13.426;2023-03-01T15:12:00;9.10;;;3.95;;
30046;SDS011;16878;52.542;13.426;2023-03-01T15:14:46;11.95;;;3.78;;
30046;SDS011;16878;52.542;13.426;2023-03-01T15:17:35;9.43;;;3.53;;
30046;SDS011;16878;52.542;13.426;2023-03-01T15:20:02;10.65;;;3.78;;
30046;SDS011;16878;52.542;13.426;2023-03-01T15:22:30;9.25;;;4.40;;
30046;SDS011;16878;52.542;13.426;2023-03-01T15:24:57;5.97;;;3.38;;
30046;SDS011;16878;52.542;13.426;2023-03-01T15:27:24;6.45;;;3.95;;
30046;SDS011;16878;52.542;13.426;2023-03-01T15:30:02;11.93;;;3.83;;
30046;SDS011;16878;52.542;13.426;2023-03-01T15:32:29;14.20;;;5.35;;
30046;SDS011;16878;52.542;13.426;2023-03-01T15:34:57;9.32;;;5.63;;
30046;SDS011;16878;52.542;13.426;2023-03-01T15:45:25;10.57;;;4.93;;
30046;SDS011;16878;52.542;13.426;2023-03-01T15:47:57;7.03;;;4.33;;
30046;SDS011;16878;52.542;13.426;2023-03-01T15:52:54;8.85;;;4.72;;
30046;SDS011;16878;52.542;13.426;2023-03-01T15:55:28;12.40;;;4.80;;
30046;SDS011;16878;52.542;13.426;2023-03-01T15:58:06;10.15;;;6.47;;
30046;SDS011;16878;52.542;13.426;2023-03-01T16:00:37;14.43;;;6.63;;
30046;SDS011;16878;52.542;13.426;2023-03-01T16:03:04;6.60;;;4.15;;
30046;SDS011;16878;52.542;13.426;2023-03-01T16:05:31;8.32;;;4.50;;
30046;SDS011;16878;52.542;13.426;2023-03-01T16:07:59;11.32;;;4.18;;
30046;SDS011;16878;52.542;13.426;2023-03-01T16:10:25;12.82;;;4.55;;
30046;SDS011;16878;52.542;13.426;2023-03-01T16:12:52;12.35;;;5.10;;
30046;SDS011;16878;52.542;13.426;2023-03-01T16:15:22;10.27;;;4.95;;
30046;SDS011;16878;52.542;13.426;2023-03-01T16:17:49;13.30;;;4.75;;
30046;SDS011;16878;52.542;13.426;2023-03-01T16:20:15;10.98;;;3.95;;
30046;SDS011;16878;52.542;13.426;2023-03-01T16:22:50;9.32;;;4.30;;
30046;SDS011;16878;52.542;13.426;2023-03-01T16:25:17;17.20;;;5.75;;
30046;SDS011;16878;52.542;13.426;2023-03-01T16:27:48;11.65;;;4.45;;
30046;SDS011;16878;52.542;13.426;2023-03-01T16:30:16;8.70;;;4.20;;
30046;SDS011;16878;52.542;13.426;2023-03-01T16:32:44;7.82;;;3.80;;
30046;SDS011;16878;52.542;13.426;2023-03-01T16:35:12;9.82;;;4.22;;
30046;SDS011;16878;52.542;13.426;2023-03-01T16:37:40;8.07;;;3.97;;
30046;SDS011;16878;52.542;13.426;2023-03-01T16:40:07;14.30;;;4.75;;
30046;SDS011;16878;52.542;13.426;2023-03-01T16:42:44;34.40;;;19.13;;